createdAt,value
2019-04-20T00:01:28.114Z,102474.13
2019-04-20T00:03:55.576Z,102479.27
2019-04-20T00:06:27.086Z,102476.02
2019-04-20T00:09:08.793Z,102472.83
2019-04-20T00:11:41.635Z,102470.87
2019-04-20T00:14:09.011Z,102468.02
2019-04-20T00:16:35.744Z,102471.59
2019-04-20T00:19:07.705Z,102468.43
2019-04-20T00:21:50.669Z,102473.02
2019-04-20T00:24:23.364Z,102473.97
2019-04-20T00:27:26.055Z,102463.56
2019-04-20T00:29:43.702Z,102464.56
2019-04-20T00:32:06.014Z,102466.27
2019-04-20T00:34:36.500Z,102464.70
2019-04-20T00:37:05.164Z,102464.70
2019-04-20T00:39:36.086Z,102460.30
2019-04-20T00:42:11.123Z,102457.75
2019-04-20T00:44:41.283Z,102461.29
2019-04-20T00:47:25.275Z,102455.23
2019-04-20T00:49:58.039Z,102463.11
2019-04-20T00:52:38.933Z,102456.19
2019-04-20T00:54:49.359Z,102456.59
2019-04-20T00:57:30.538Z,102456.16
2019-04-20T01:00:11.144Z,102454.85
2019-04-20T01:02:38.356Z,102456.75
2019-04-20T01:05:16.533Z,102459.27
2019-04-20T01:07:39.502Z,102455.19
2019-04-20T01:10:08.985Z,102452.64
2019-04-20T01:12:42.044Z,102461.98
2019-04-20T01:15:23.661Z,102459.65
2019-04-20T01:17:46.832Z,102463.03
2019-04-20T01:20:18.412Z,102460.81
2019-04-20T01:22:55.950Z,102456.22
2019-04-20T01:25:30.089Z,102460.72
2019-04-20T01:28:14.862Z,102456.83
2019-04-20T01:30:35.923Z,102459.97
2019-04-20T01:33:16.333Z,102458.31
2019-04-20T01:35:48.839Z,102457.30
2019-04-20T01:38:21.250Z,102456.20
2019-04-20T01:40:38.652Z,102455.53
2019-04-20T01:43:10.047Z,102456.89
2019-04-20T01:45:42.730Z,102464.05
2019-04-20T01:48:14.167Z,102461.72
2019-04-20T01:50:55.070Z,102462.55
2019-04-20T01:53:39.153Z,102465.03
2019-04-20T01:56:12.489Z,102457.16
2019-04-20T01:58:50.520Z,102451.47
2019-04-20T02:01:27.136Z,102460.39
2019-04-20T02:04:23.798Z,102458.20
2019-04-20T02:06:50.382Z,102461.82
2019-04-20T02:09:22.229Z,102456.58
2019-04-20T02:11:53.830Z,102463.47
2019-04-20T02:14:35.145Z,102460.53
2019-04-20T02:17:08.291Z,102461.44
2019-04-20T02:19:44.199Z,102463.17
2019-04-20T02:22:13.563Z,102465.02
2019-04-20T02:24:34.026Z,102463.94
2019-04-20T02:27:06.106Z,102459.22
2019-04-20T02:29:58.151Z,102467.00
2019-04-20T02:32:36.615Z,102468.85
2019-04-20T02:35:36.208Z,102461.27
2019-04-20T02:38:12.145Z,102462.56
2019-04-20T02:40:47.814Z,102459.36
2019-04-20T02:45:44.921Z,102464.52
2019-04-20T02:48:14.099Z,102462.56
2019-04-20T02:50:49.897Z,102459.24
2019-04-20T02:55:57.705Z,102462.41
2019-04-20T02:58:32.771Z,102464.73
2019-04-20T03:00:52.334Z,102464.20
2019-04-20T03:03:15.919Z,102460.80
2019-04-20T03:05:45.440Z,102464.48
2019-04-20T03:08:22.377Z,102459.17
2019-04-20T03:11:09.001Z,102459.34
2019-04-20T03:13:34.909Z,102456.19
2019-04-20T03:16:09.111Z,102462.10
2019-04-20T03:18:35.068Z,102463.19
2019-04-20T03:21:15.047Z,102461.94
2019-04-20T03:23:45.842Z,102462.47
2019-04-20T03:26:17.616Z,102464.54
2019-04-20T03:29:05.553Z,102468.82
2019-04-20T03:32:28.506Z,102458.63
2019-04-20T03:34:58.875Z,102457.66
2019-04-20T03:37:15.632Z,102464.44
2019-04-20T03:39:32.397Z,102458.09
2019-04-20T03:41:54.913Z,102462.80
2019-04-20T03:44:26.499Z,102458.95
2019-04-20T03:46:59.719Z,102453.59
2019-04-20T03:49:58.017Z,102451.64
2019-04-20T03:52:26.188Z,102460.63
2019-04-20T03:55:15.078Z,102458.84
2019-04-20T03:57:54.104Z,102465.41
2019-04-20T04:00:37.514Z,102464.87
2019-04-20T04:03:39.173Z,102460.96
2019-04-20T04:05:55.976Z,102473.32
2019-04-20T04:08:26.615Z,102469.20
2019-04-20T04:11:09.774Z,102473.42
2019-04-20T04:13:21.280Z,102466.27
2019-04-20T04:15:59.349Z,102468.05
2019-04-20T04:18:31.921Z,102464.92
2019-04-20T04:21:03.852Z,102462.86
2019-04-20T04:23:44.451Z,102455.00
2019-04-20T04:26:24.631Z,102457.98
2019-04-20T04:28:47.499Z,102462.16
2019-04-20T04:31:28.119Z,102459.77
2019-04-20T04:33:59.395Z,102461.88
2019-04-20T04:36:28.913Z,102462.22
2019-04-20T04:39:22.356Z,102459.44
2019-04-20T04:41:36.801Z,102458.41
2019-04-20T04:44:04.780Z,102456.73
2019-04-20T04:46:22.685Z,102455.30
2019-04-20T04:49:03.612Z,102462.89
2019-04-20T04:51:33.227Z,102462.27
2019-04-20T04:54:12.729Z,102466.60
2019-04-20T04:56:33.596Z,102463.38
2019-04-20T04:59:04.493Z,102467.35
2019-04-20T05:01:37.214Z,102467.94
2019-04-20T05:04:32.103Z,102467.84
2019-04-20T05:06:54.787Z,102469.16
2019-04-20T05:09:15.358Z,102471.92
2019-04-20T05:11:44.739Z,102473.05
2019-04-20T05:14:23.583Z,102474.23
2019-04-20T05:17:04.566Z,102477.95
2019-04-20T05:19:46.141Z,102475.59
2019-04-20T05:22:17.807Z,102481.05
2019-04-20T05:24:53.727Z,102472.91
2019-04-20T05:27:33.610Z,102480.16
2019-04-20T05:29:44.723Z,102476.41
2019-04-20T05:32:24.952Z,102478.69
2019-04-20T05:35:19.696Z,102474.36
2019-04-20T05:37:51.462Z,102472.83
2019-04-20T05:40:16.242Z,102474.15
2019-04-20T05:42:52.516Z,102473.16
2019-04-20T05:45:20.581Z,102470.52
2019-04-20T05:47:58.527Z,102468.75
2019-04-20T05:50:34.477Z,102465.62
2019-04-20T05:53:09.957Z,102466.30
2019-04-20T05:55:39.095Z,102473.55
2019-04-20T05:58:17.868Z,102473.45
2019-04-20T06:00:55.036Z,102477.80
2019-04-20T06:03:20.275Z,102471.62
2019-04-20T06:05:59.356Z,102475.25
2019-04-20T06:08:40.289Z,102476.79
2019-04-20T06:11:01.999Z,102476.97
2019-04-20T06:13:27.880Z,102487.02
2019-04-20T06:16:07.442Z,102480.83
2019-04-20T06:19:00.717Z,102474.42
2019-04-20T06:21:37.991Z,102479.50
2019-04-20T06:24:27.798Z,102471.22
2019-04-20T06:26:51.918Z,102471.76
2019-04-20T06:29:09.410Z,102467.66
2019-04-20T06:31:46.808Z,102463.13
2019-04-20T06:39:34.781Z,102463.25
2019-04-20T06:44:36.840Z,102471.42
2019-04-20T06:47:11.611Z,102477.64
2019-04-20T06:49:38.407Z,102474.13
2019-04-20T06:52:24.361Z,102472.18
2019-04-20T06:55:09.917Z,102469.88
2019-04-20T07:00:15.330Z,102473.23
2019-04-20T07:02:55.444Z,102474.59
2019-04-20T07:05:22.364Z,102485.62
2019-04-20T07:08:00.791Z,102483.77
2019-04-20T07:10:34.494Z,102479.19
2019-04-20T07:12:56.167Z,102475.95
2019-04-20T07:15:29.038Z,102483.29
2019-04-20T07:18:08.117Z,102478.52
2019-04-20T07:20:47.334Z,102474.18
2019-04-20T07:23:24.284Z,102477.05
2019-04-20T07:25:47.629Z,102471.86
2019-04-20T07:28:19.632Z,102468.05
2019-04-20T07:30:53.957Z,102474.27
2019-04-20T07:33:24.630Z,102471.73
2019-04-20T07:35:50.910Z,102474.63
2019-04-20T07:40:56.082Z,102465.30
2019-04-20T07:43:34.858Z,102476.16
2019-04-20T07:46:04.313Z,102476.48
2019-04-20T07:48:29.278Z,102477.67
2019-04-20T07:50:58.249Z,102475.23
2019-04-20T07:53:33.004Z,102470.08
2019-04-20T07:56:13.134Z,102479.52
2019-04-20T07:58:38.062Z,102474.72
2019-04-20T08:01:39.088Z,102472.20
2019-04-20T08:04:20.882Z,102477.56
2019-04-20T08:06:38.101Z,102480.48
2019-04-20T08:09:16.107Z,102478.03
2019-04-20T08:12:04.675Z,102477.36
2019-04-20T08:14:35.701Z,102464.45
2019-04-20T08:17:14.313Z,102459.20
2019-04-20T08:19:28.650Z,102456.19
2019-04-20T08:22:07.709Z,102461.19
2019-04-20T08:24:34.485Z,102453.87
2019-04-20T08:26:55.928Z,102457.00
2019-04-20T08:29:47.500Z,102453.77
2019-04-20T08:32:45.196Z,102452.78
2019-04-20T08:35:22.189Z,102453.55
2019-04-20T08:38:13.255Z,102455.00
2019-04-20T08:40:29.973Z,102446.77
2019-04-20T08:43:05.468Z,102445.48
2019-04-20T08:45:35.051Z,102439.20
2019-04-20T08:48:02.846Z,102437.45
2019-04-20T08:50:36.233Z,102443.48
2019-04-20T08:53:16.061Z,102444.93
2019-04-20T08:55:40.100Z,102430.22
2019-04-20T08:57:54.272Z,102440.59
2019-04-20T09:00:34.834Z,102437.45
2019-04-20T09:03:06.937Z,102424.52
2019-04-20T09:05:42.360Z,102420.89
2019-04-20T09:08:13.496Z,102420.44
2019-04-20T09:10:56.519Z,102415.58
2019-04-20T09:13:20.086Z,102416.80
2019-04-20T09:15:40.407Z,102417.02
2019-04-20T09:18:22.874Z,102413.84
2019-04-20T09:20:52.962Z,102411.47
2019-04-20T09:23:31.454Z,102406.84
2019-04-20T09:26:08.982Z,102411.31
2019-04-20T09:28:36.325Z,102403.19
2019-04-20T09:31:27.002Z,102400.66
2019-04-20T09:34:01.546Z,102397.81
2019-04-20T09:36:47.216Z,102394.84
2019-04-20T09:39:21.418Z,102400.53
2019-04-20T09:42:01.399Z,102388.73
2019-04-20T09:44:39.829Z,102390.84
2019-04-20T09:47:06.439Z,102392.54
2019-04-20T09:49:49.628Z,102388.66
2019-04-20T09:52:21.291Z,102389.75
2019-04-20T09:54:59.390Z,102384.34
2019-04-20T09:57:33.892Z,102390.20
2019-04-20T10:00:01.521Z,102386.40
2019-04-20T10:02:25.882Z,102385.72
2019-04-20T10:04:53.497Z,102383.69
2019-04-20T10:07:28.694Z,102376.88
2019-04-20T10:09:57.858Z,102376.11
2019-04-20T10:12:29.343Z,102370.39
2019-04-20T10:15:04.191Z,102372.53
2019-04-20T10:17:34.023Z,102371.55
2019-04-20T10:20:10.857Z,102367.66
2019-04-20T10:22:38.957Z,102369.69
2019-04-20T10:25:10.800Z,102366.00
2019-04-20T10:27:42.407Z,102365.30
2019-04-20T10:30:14.600Z,102364.93
2019-04-20T10:32:50.376Z,102361.40
2019-04-20T10:35:18.828Z,102361.11
2019-04-20T10:37:51.591Z,102359.23
2019-04-20T10:40:37.778Z,102368.03
2019-04-20T10:42:55.189Z,102359.52
2019-04-20T10:45:26.913Z,102360.09
2019-04-20T10:47:57.537Z,102355.64
2019-04-20T10:50:29.293Z,102354.81
2019-04-20T10:52:59.876Z,102352.46
2019-04-20T10:55:31.441Z,102352.28
2019-04-20T10:58:02.037Z,102345.22
2019-04-20T11:00:44.226Z,102352.02
2019-04-20T11:03:15.921Z,102349.05
2019-04-20T11:05:48.791Z,102348.10
2019-04-20T11:08:20.348Z,102352.61
2019-04-20T11:11:04.614Z,102343.31
2019-04-20T11:13:23.596Z,102339.41
2019-04-20T11:15:54.676Z,102342.91
2019-04-20T11:18:27.337Z,102338.37
2019-04-20T11:20:59.340Z,102337.55
2019-04-20T11:23:30.080Z,102333.02
2019-04-20T11:26:02.138Z,102326.91
2019-04-20T11:28:32.894Z,102322.83
2019-04-20T11:31:04.075Z,102312.27
2019-04-20T11:33:34.709Z,102311.75
2019-04-20T11:36:07.041Z,102321.77
2019-04-20T11:41:16.289Z,102318.16
2019-04-20T11:43:39.877Z,102314.33
2019-04-20T11:46:10.459Z,102316.38
2019-04-20T11:48:41.386Z,102304.43
2019-04-20T11:51:12.012Z,102298.52
2019-04-20T11:53:42.789Z,102300.64
2019-04-20T11:56:20.360Z,102293.75
2019-04-20T11:58:47.027Z,102291.17
2019-04-20T12:01:22.526Z,102285.77
2019-04-20T12:04:01.613Z,102288.48
2019-04-20T12:06:26.620Z,102279.56
2019-04-20T12:08:58.978Z,102279.56
2019-04-20T12:11:39.352Z,102270.63
2019-04-20T12:14:02.741Z,102270.02
2019-04-20T12:16:33.591Z,102278.19
2019-04-20T12:19:04.409Z,102270.66
2019-04-20T12:21:34.999Z,102273.61
2019-04-20T12:24:06.779Z,102268.58
2019-04-20T12:26:38.657Z,102257.88
2019-04-20T12:29:09.926Z,102259.39
2019-04-20T12:31:44.330Z,102258.05
2019-04-20T12:34:13.037Z,102257.30
2019-04-20T12:36:44.807Z,102249.34
2019-04-20T12:39:15.476Z,102246.80
2019-04-20T12:41:52.940Z,102246.83
2019-04-20T12:44:19.659Z,102249.36
2019-04-20T12:46:50.343Z,102247.03
2019-04-20T12:49:20.914Z,102243.27
2019-04-20T12:51:59.300Z,102237.56
2019-04-20T12:54:24.903Z,102238.67
2019-04-20T12:56:56.304Z,102234.83
2019-04-20T12:59:27.570Z,102230.03
2019-04-20T13:01:59.429Z,102228.69
2019-04-20T13:04:30.490Z,102222.05
2019-04-20T13:07:05.914Z,102218.70
2019-04-20T13:09:40.881Z,102213.08
2019-04-20T13:12:13.917Z,102217.70
2019-04-20T13:14:58.572Z,102214.61
2019-04-20T13:17:30.477Z,102216.08
2019-04-20T13:20:02.076Z,102217.66
2019-04-20T13:22:32.958Z,102212.39
2019-04-20T13:25:07.325Z,102214.52
2019-04-20T13:27:38.909Z,102201.67
2019-04-20T13:30:11.120Z,102201.67
2019-04-20T13:32:43.683Z,102206.14
2019-04-20T13:35:14.323Z,102201.66
2019-04-20T13:37:45.697Z,102186.39
2019-04-20T13:40:19.450Z,102196.42
2019-04-20T13:42:51.794Z,102196.42
2019-04-20T13:45:24.672Z,102187.71
2019-04-20T13:47:56.975Z,102186.42
2019-04-20T13:50:29.736Z,102183.05
2019-04-20T13:53:01.161Z,102187.48
2019-04-20T13:55:31.922Z,102174.09
2019-04-20T13:58:13.905Z,102184.09
2019-04-20T14:00:53.485Z,102180.95
2019-04-20T14:03:25.823Z,102178.59
2019-04-20T14:05:58.563Z,102177.31
2019-04-20T14:08:31.498Z,102169.34
2019-04-20T14:11:03.149Z,102165.37
2019-04-20T14:13:38.104Z,102160.81
2019-04-20T14:16:09.117Z,102157.45
2019-04-20T14:18:40.949Z,102157.45
2019-04-20T14:21:12.243Z,102159.47
2019-04-20T14:23:43.230Z,102159.47
2019-04-20T14:26:14.655Z,102142.48
2019-04-20T14:28:45.333Z,102142.48
2019-04-20T14:31:16.131Z,102139.05
2019-04-20T14:33:48.777Z,102144.48
2019-04-20T14:36:21.442Z,102144.48
2019-04-20T14:38:52.035Z,102141.03
2019-04-20T14:41:22.791Z,102141.03
2019-04-20T14:43:53.420Z,102137.12
2019-04-20T14:46:26.237Z,102130.91
2019-04-20T14:48:56.674Z,102136.95
2019-04-20T14:51:27.873Z,102139.84
2019-04-20T14:53:59.217Z,102134.00
2019-04-20T14:56:29.848Z,102129.52
2019-04-20T14:59:05.239Z,102131.05
2019-04-20T15:01:38.683Z,102121.86
2019-04-20T15:04:14.901Z,102116.27
2019-04-20T15:06:42.467Z,102122.71
2019-04-20T15:09:14.710Z,102117.54
2019-04-20T15:11:46.575Z,102117.83
2019-04-20T15:14:18.672Z,102119.27
2019-04-20T15:16:50.759Z,102119.84
2019-04-20T15:19:23.491Z,102114.14
2019-04-20T15:22:03.142Z,102105.95
2019-04-20T15:24:33.830Z,102108.59
2019-04-20T15:27:04.821Z,102105.58
2019-04-20T15:29:36.053Z,102109.38
2019-04-20T15:32:08.181Z,102105.24
2019-04-20T15:34:39.188Z,102092.31
2019-04-20T15:37:10.029Z,102093.14
2019-04-20T15:39:41.560Z,102092.95
2019-04-20T15:42:12.173Z,102095.04
2019-04-20T15:44:43.073Z,102090.95
2019-04-20T15:47:15.261Z,102087.52
2019-04-20T15:49:46.213Z,102091.87
2019-04-20T15:52:19.897Z,102091.23
2019-04-20T15:54:49.692Z,102087.44
2019-04-20T15:57:25.316Z,102089.29
2019-04-20T15:59:52.848Z,102084.03
2019-04-20T16:02:31.550Z,102085.14
2019-04-20T16:05:04.167Z,102092.81
2019-04-20T16:07:40.037Z,102085.73
2019-04-20T16:10:07.562Z,102081.64
2019-04-20T16:12:38.593Z,102083.89
2019-04-20T16:15:09.555Z,102084.23
2019-04-20T16:17:45.415Z,102081.79
2019-04-20T16:20:19.323Z,102084.04
2019-04-20T16:22:46.741Z,102085.39
2019-04-20T16:25:31.856Z,102073.57
2019-04-20T16:28:03.621Z,102079.69
2019-04-20T16:30:35.741Z,102072.60
2019-04-20T16:33:06.492Z,102078.89
2019-04-20T16:35:38.407Z,102077.82
2019-04-20T16:38:09.107Z,102073.91
2019-04-20T16:40:39.705Z,102078.25
2019-04-20T16:43:22.137Z,102076.08
2019-04-20T16:45:43.232Z,102070.23
2019-04-20T16:48:14.003Z,102073.02
2019-04-20T16:50:46.779Z,102066.59
2019-04-20T16:53:17.497Z,102064.30
2019-04-20T16:55:48.478Z,102064.45
2019-04-20T16:58:19.802Z,102071.08
2019-04-20T17:00:51.760Z,102069.06
2019-04-20T17:03:31.741Z,102066.75
2019-04-20T17:05:56.023Z,102059.50
2019-04-20T17:08:27.034Z,102054.33
2019-04-20T17:10:58.133Z,102062.04
2019-04-20T17:13:38.199Z,102054.26
2019-04-20T17:16:01.813Z,102056.66
2019-04-20T17:18:33.995Z,102058.32
2019-04-20T17:21:15.558Z,102057.75
2019-04-20T17:23:41.492Z,102063.61
2019-04-20T17:26:12.707Z,102060.63
2019-04-20T17:28:55.556Z,102057.09
2019-04-20T17:31:29.340Z,102057.16
2019-04-20T17:34:11.309Z,102055.49
2019-04-20T17:36:36.297Z,102054.81
2019-04-20T17:39:10.496Z,102056.41
2019-04-20T17:41:54.552Z,102054.45
2019-04-20T17:44:28.699Z,102056.69
2019-04-20T17:46:58.193Z,102053.08
2019-04-20T17:49:29.501Z,102056.72
2019-04-20T17:52:14.274Z,102055.03
2019-04-20T17:54:37.854Z,102062.97
2019-04-20T17:57:11.061Z,102063.66
2019-04-20T17:59:46.358Z,102059.03
2019-04-20T18:02:37.322Z,102060.41
2019-04-20T18:05:19.772Z,102048.25
2019-04-20T18:07:44.833Z,102050.27
2019-04-20T18:10:17.483Z,102062.77
2019-04-20T18:12:37.454Z,102060.87
2019-04-20T18:15:22.919Z,102057.59
2019-04-20T18:18:13.633Z,102057.06
2019-04-20T18:20:34.885Z,102060.45
2019-04-20T18:23:28.117Z,102066.51
2019-04-20T18:26:17.173Z,102066.16
2019-04-20T18:28:51.607Z,102065.78
2019-04-20T18:31:04.320Z,102058.84
2019-04-20T18:33:38.363Z,102063.84
2019-04-20T18:36:13.288Z,102059.12
2019-04-20T18:38:49.627Z,102056.33
2019-04-20T18:41:24.342Z,102053.87
2019-04-20T18:43:50.779Z,102050.41
2019-04-20T18:46:42.880Z,102050.72
2019-04-20T18:49:09.798Z,102056.03
2019-04-20T18:51:23.990Z,102055.52
2019-04-20T18:53:55.677Z,102055.91
2019-04-20T18:56:32.418Z,102049.73
2019-04-20T18:59:01.099Z,102054.97
2019-04-20T19:01:34.904Z,102049.77
2019-04-20T19:04:05.649Z,102054.09
2019-04-20T19:06:36.412Z,102052.88
2019-04-20T19:09:09.523Z,102052.12
2019-04-20T19:11:44.805Z,102053.19
2019-04-20T19:14:32.537Z,102049.91
2019-04-20T19:17:09.024Z,102053.09
2019-04-20T19:19:39.387Z,102052.48
2019-04-20T19:22:04.326Z,102052.89
2019-04-20T19:24:37.869Z,102058.16
2019-04-20T19:27:14.978Z,102053.89
2019-04-20T19:29:54.645Z,102050.39
2019-04-20T19:32:30.365Z,102048.26
2019-04-20T19:34:59.330Z,102044.52
2019-04-20T19:37:28.658Z,102045.71
2019-04-20T19:40:05.596Z,102043.52
2019-04-20T19:42:39.171Z,102049.52
2019-04-20T19:45:29.093Z,102051.90
2019-04-20T19:47:48.267Z,102066.29
2019-04-20T19:50:35.620Z,102084.55
2019-04-20T19:53:05.681Z,102073.88
2019-04-20T19:55:29.842Z,102083.47
2019-04-20T19:58:02.640Z,102083.33
2019-04-20T20:00:22.835Z,102076.52
2019-04-20T20:02:54.334Z,102081.02
2019-04-20T20:05:36.247Z,102081.32
2019-04-20T20:08:05.501Z,102084.41
2019-04-20T20:10:37.709Z,102088.81
2019-04-20T20:13:08.243Z,102080.36
2019-04-20T20:15:41.794Z,102083.73
2019-04-20T20:18:30.658Z,102083.66
2019-04-20T20:20:59.575Z,102085.02
2019-04-20T20:23:18.714Z,102091.02
2019-04-20T20:25:50.117Z,102090.41
2019-04-20T20:28:31.033Z,102088.91
2019-04-20T20:31:05.051Z,102094.22
2019-04-20T20:33:45.403Z,102097.87
2019-04-20T20:36:05.679Z,102095.72
2019-04-20T20:38:42.573Z,102095.24
2019-04-20T20:41:15.197Z,102104.28
2019-04-20T20:43:48.919Z,102109.30
2019-04-20T20:46:23.953Z,102115.39
2019-04-20T20:49:06.206Z,102120.92
2019-04-20T20:51:39.228Z,102117.71
2019-04-20T20:53:57.898Z,102119.98
2019-04-20T20:56:27.411Z,102120.80
2019-04-20T20:59:06.385Z,102118.08
2019-04-20T21:01:37.798Z,102117.77
2019-04-20T21:03:58.663Z,102121.26
2019-04-20T21:06:30.594Z,102115.27
2019-04-20T21:09:02.954Z,102108.77
2019-04-20T21:11:36.347Z,102103.69
2019-04-20T21:14:07.301Z,102100.87
2019-04-20T21:16:47.005Z,102102.73
2019-04-20T21:19:24.559Z,102101.95
2019-04-20T21:21:50.450Z,102106.54
2019-04-20T21:24:23.694Z,102107.00
2019-04-20T21:26:55.986Z,102108.81
2019-04-20T21:29:35.335Z,102110.12
2019-04-20T21:32:05.097Z,102105.64
2019-04-20T21:34:33.058Z,102105.33
2019-04-20T21:37:10.672Z,102105.60
2019-04-20T21:39:44.735Z,102095.30
2019-04-20T21:42:15.847Z,102103.00
2019-04-20T21:44:45.363Z,102108.95
2019-04-20T21:47:22.377Z,102105.88
2019-04-20T21:49:57.769Z,102111.68
2019-04-20T21:52:26.931Z,102107.95
2019-04-20T21:54:52.182Z,102110.22
2019-04-20T21:57:24.086Z,102106.59
2019-04-20T22:00:06.041Z,102100.74
2019-04-20T22:02:33.850Z,102106.17
2019-04-20T22:05:01.268Z,102105.33
2019-04-20T22:07:34.295Z,102102.52
2019-04-20T22:10:13.982Z,102106.01
2019-04-20T22:12:47.573Z,102108.32
2019-04-20T22:15:19.852Z,102110.22
2019-04-20T22:17:46.437Z,102113.45
2019-04-20T22:20:26.736Z,102110.31
2019-04-20T22:23:03.001Z,102112.36
2019-04-20T22:25:37.333Z,102118.16
2019-04-20T22:27:56.980Z,102112.09
2019-04-20T22:30:26.501Z,102117.86
2019-04-20T22:33:00.845Z,102113.72
2019-04-20T22:35:31.373Z,102111.55
2019-04-20T22:38:20.473Z,102108.19
2019-04-20T22:40:52.470Z,102110.45
2019-04-20T22:43:27.317Z,102111.17
2019-04-20T22:45:57.212Z,102107.89
2019-04-20T22:48:29.089Z,102112.06
2019-04-20T22:51:22.364Z,102109.47
2019-04-20T22:53:44.721Z,102101.48
2019-04-20T22:56:25.210Z,102106.00
2019-04-20T22:58:48.817Z,102093.33
2019-04-20T23:01:23.273Z,102095.77
2019-04-20T23:03:42.999Z,102088.70
2019-04-20T23:06:14.586Z,102083.09
2019-04-20T23:08:47.318Z,102082.52
2019-04-20T23:11:23.608Z,102084.52
2019-04-20T23:13:52.042Z,102075.45
2019-04-20T23:16:22.970Z,102075.84
2019-04-20T23:18:54.142Z,102075.38
2019-04-20T23:21:25.865Z,102066.88
2019-04-20T23:24:02.250Z,102062.55
2019-04-20T23:26:33.528Z,102063.92
2019-04-20T23:29:02.662Z,102055.77
2019-04-20T23:31:34.544Z,102059.11
2019-04-20T23:34:12.831Z,102059.11
2019-04-20T23:36:42.321Z,102056.42
2019-04-20T23:39:13.037Z,102057.07
2019-04-20T23:41:53.771Z,102055.58
2019-04-20T23:44:18.953Z,102052.62
2019-04-20T23:47:02.076Z,102047.08
2019-04-20T23:49:34.129Z,102049.55
2019-04-20T23:52:27.653Z,102050.67
2019-04-20T23:54:37.198Z,102040.80
2019-04-20T23:57:07.992Z,102032.53
2019-04-20T23:59:42.834Z,102034.25
